Time;durP1;ratioP1;P1;durP2;ratioP2;P2;SDS_P1;SDS_P2;PMS_P1;PMS_P2;Temp;Humidity;BMP_temperature;BMP_pressure;BME280_temperature;BME280_humidity;BME280_pressure;Samples;Min_cycle;Max_cycle;Signal;HPM_P1;HPM_P2
2023/05/29 00:01:18;;;;;;;;;;;12.70;61.80;;;;;;5087930;28;20419;-74
2023/05/29 00:03:44;;;;;;;;;;;12.80;61.80;;;;;;5088013;28;19959;-75
2023/05/29 00:06:10;;;;;;;;;;;12.80;61.50;;;;;;5088126;28;20346;-75
2023/05/29 00:08:36;;;;;;;;;;;12.80;61.30;;;;;;5088025;28;19920;-75
2023/05/29 00:11:01;;;;;;;;;;;12.80;61.20;;;;;;5088023;28;19912;-75
2023/05/29 00:13:27;;;;;;;;;;;12.90;61.10;;;;;;5087975;28;19912;-75
2023/05/29 00:15:52;;;;;;;;;;;12.80;61.10;;;;;;5086613;28;19944;-75
2023/05/29 00:18:18;;;;;;;;;;;12.80;61.30;;;;;;5087838;28;19916;-75
2023/05/29 00:20:43;;;;;;;;;;;12.90;61.30;;;;;;5087939;28;19916;-75
2023/05/29 00:23:09;;;;;;;;;;;12.90;61.30;;;;;;5087687;28;19916;-75
2023/05/29 00:25:35;;;;;;;;;;;12.90;61.30;;;;;;5087900;28;20016;-75
2023/05/29 00:28:01;;;;;;;;;;;12.80;61.20;;;;;;5087838;28;19918;-75
2023/05/29 00:30:26;;;;;;;;;;;12.80;61.30;;;;;;5086476;28;20283;-75
2023/05/29 00:32:52;;;;;;;;;;;12.60;61.30;;;;;;5087795;28;19912;-75
2023/05/29 00:35:18;;;;;;;;;;;12.60;61.50;;;;;;5087926;28;19912;-75
2023/05/29 00:37:43;;;;;;;;;;;12.50;62.00;;;;;;5087765;28;20283;-75
2023/05/29 00:40:09;;;;;;;;;;;12.40;61.50;;;;;;5088864;28;19913;-75
2023/05/29 00:42:35;;;;;;;;;;;12.30;61.60;;;;;;5091817;28;20345;-75
2023/05/29 00:45:01;;;;;;;;;;;12.20;61.70;;;;;;5091741;28;19912;-75
2023/05/29 00:47:26;;;;;;;;;;;12.10;61.80;;;;;;5091823;28;19935;-75
2023/05/29 00:49:53;;;;;;;;;;;12.10;61.80;;;;;;5091563;28;19919;-75
2023/05/29 00:52:20;;;;;;;;;;;12.20;61.80;;;;;;5091648;28;20525;-75
2023/05/29 00:54:45;;;;;;;;;;;12.20;61.70;;;;;;5091511;28;20284;-75
2023/05/29 00:57:12;;;;;;;;;;;12.20;61.70;;;;;;5091596;28;19915;-75
2023/05/29 00:59:39;;;;;;;;;;;12.20;61.60;;;;;;5091613;28;19915;-75
2023/05/29 01:02:05;;;;;;;;;;;12.30;61.50;;;;;;5091448;28;19924;-75
2023/05/29 01:04:33;;;;;;;;;;;12.30;61.50;;;;;;5091375;28;19961;-75
2023/05/29 01:07:00;;;;;;;;;;;12.30;61.40;;;;;;5091451;28;19920;-75
2023/05/29 01:09:25;;;;;;;;;;;12.20;61.50;;;;;;5091639;28;19908;-75
2023/05/29 01:12:11;;;;;;;;;;;12.10;61.50;;;;;;5091326;28;19935;-75
2023/05/29 01:14:40;;;;;;;;;;;12.00;61.60;;;;;;5091154;28;20360;-75
2023/05/29 01:17:16;;;;;;;;;;;11.90;61.60;;;;;;5089841;28;19917;-74
2023/05/29 01:20:01;;;;;;;;;;;11.80;61.60;;;;;;5091204;28;20007;-75
2023/05/29 01:22:38;;;;;;;;;;;11.80;61.70;;;;;;5091113;28;19908;-75
2023/05/29 01:25:04;;;;;;;;;;;11.70;61.80;;;;;;5090915;28;20012;-75
2023/05/29 01:27:30;;;;;;;;;;;11.80;61.70;;;;;;5091041;28;19964;-75
2023/05/29 01:29:57;;;;;;;;;;;11.90;61.70;;;;;;5090969;28;19990;-75
2023/05/29 01:32:25;;;;;;;;;;;11.90;61.60;;;;;;5090860;28;19987;-75
2023/05/29 01:34:51;;;;;;;;;;;11.90;61.50;;;;;;5090773;28;19908;-74
2023/05/29 01:37:16;;;;;;;;;;;11.80;61.40;;;;;;5091005;28;19919;-74
2023/05/29 01:39:42;;;;;;;;;;;11.80;61.60;;;;;;5090784;28;19912;-75
2023/05/29 01:42:08;;;;;;;;;;;11.70;61.70;;;;;;5090671;28;19912;-75
2023/05/29 01:44:34;;;;;;;;;;;11.70;61.80;;;;;;5090590;28;19938;-75
2023/05/29 01:47:00;;;;;;;;;;;11.80;61.80;;;;;;5090591;28;19930;-75
2023/05/29 01:49:26;;;;;;;;;;;11.80;61.70;;;;;;5090628;28;19939;-75
2023/05/29 01:51:52;;;;;;;;;;;11.90;61.60;;;;;;5089610;28;19916;-75
2023/05/29 01:54:17;;;;;;;;;;;11.90;61.50;;;;;;5090370;28;20292;-75
2023/05/29 01:56:44;;;;;;;;;;;11.90;61.40;;;;;;5090519;28;19909;-75
2023/05/29 01:59:10;;;;;;;;;;;11.90;61.40;;;;;;5090360;28;20280;-75
2023/05/29 02:01:38;;;;;;;;;;;11.80;61.40;;;;;;5090162;28;19912;-74
2023/05/29 02:04:03;;;;;;;;;;;11.70;61.50;;;;;;5090303;28;20260;-75
2023/05/29 02:06:30;;;;;;;;;;;11.60;61.60;;;;;;5090294;28;19923;-75
2023/05/29 02:08:56;;;;;;;;;;;11.50;61.60;;;;;;5090148;28;19998;-75
2023/05/29 02:11:22;;;;;;;;;;;11.50;61.70;;;;;;5090200;28;19951;-74
2023/05/29 02:13:47;;;;;;;;;;;11.50;61.70;;;;;;5090034;28;20011;-75
2023/05/29 02:16:13;;;;;;;;;;;11.50;61.80;;;;;;5088731;28;20374;-75
2023/05/29 02:18:39;;;;;;;;;;;11.50;61.90;;;;;;5090099;28;19912;-75
2023/05/29 02:21:04;;;;;;;;;;;11.50;61.80;;;;;;5090056;28;19916;-75
2023/05/29 02:23:30;;;;;;;;;;;11.60;61.70;;;;;;5089779;28;20368;-75
2023/05/29 02:25:55;;;;;;;;;;;11.60;61.70;;;;;;5088635;28;19912;-75
2023/05/29 02:28:21;;;;;;;;;;;11.50;61.60;;;;;;5089747;28;20347;-75
2023/05/29 02:30:47;;;;;;;;;;;11.50;61.70;;;;;;5089853;28;19947;-74
2023/05/29 02:33:12;;;;;;;;;;;11.50;61.70;;;;;;5089717;28;19916;-75
2023/05/29 02:35:38;;;;;;;;;;;11.50;61.80;;;;;;5089723;28;19912;-75
2023/05/29 02:38:03;;;;;;;;;;;11.40;61.80;;;;;;5089614;28;19916;-75
2023/05/29 02:40:29;;;;;;;;;;;11.40;61.80;;;;;;5088410;28;19912;-75
2023/05/29 02:42:55;;;;;;;;;;;11.40;62.40;;;;;;5089369;28;19919;-75
2023/05/29 02:45:20;;;;;;;;;;;11.50;61.90;;;;;;5089513;28;19912;-75
2023/05/29 02:47:46;;;;;;;;;;;11.50;61.80;;;;;;5089455;28;19912;-75
2023/05/29 02:50:14;;;;;;;;;;;11.50;61.90;;;;;;5089384;28;20364;-75
2023/05/29 02:52:40;;;;;;;;;;;11.60;61.80;;;;;;5089271;28;19916;-75
2023/05/29 02:55:06;;;;;;;;;;;11.60;61.70;;;;;;5089245;28;19916;-75
2023/05/29 02:57:32;;;;;;;;;;;11.50;61.70;;;;;;5089293;28;20253;-75
2023/05/29 02:59:58;;;;;;;;;;;11.50;61.70;;;;;;5089183;28;19955;-75
2023/05/29 03:02:23;;;;;;;;;;;11.40;61.60;;;;;;5088891;28;19947;-75
2023/05/29 03:04:50;;;;;;;;;;;11.30;61.70;;;;;;5089097;28;20022;-75
2023/05/29 03:07:16;;;;;;;;;;;11.30;61.80;;;;;;5089030;28;19916;-75
2023/05/29 03:09:42;;;;;;;;;;;11.20;61.80;;;;;;5088976;28;19921;-75
2023/05/29 03:12:07;;;;;;;;;;;11.20;61.90;;;;;;5089465;28;19920;-75
2023/05/29 03:14:35;;;;;;;;;;;11.10;61.90;;;;;;5088812;28;19908;-75
2023/05/29 03:17:01;;;;;;;;;;;11.20;62.00;;;;;;5088953;28;20292;-74
2023/05/29 03:19:27;;;;;;;;;;;11.20;61.90;;;;;;5088829;28;19966;-75
2023/05/29 03:21:53;;;;;;;;;;;11.20;61.80;;;;;;5088757;28;19955;-75
2023/05/29 03:24:18;;;;;;;;;;;11.20;61.80;;;;;;5088670;28;20452;-75
2023/05/29 03:26:44;;;;;;;;;;;11.20;61.90;;;;;;5088758;28;19923;-75
2023/05/29 03:29:09;;;;;;;;;;;11.20;62.00;;;;;;5088733;28;20427;-75
2023/05/29 03:31:35;;;;;;;;;;;11.20;61.90;;;;;;5088636;28;19927;-75
2023/05/29 03:34:01;;;;;;;;;;;11.30;61.90;;;;;;5087161;28;20012;-75
2023/05/29 03:36:26;;;;;;;;;;;11.30;61.90;;;;;;5088639;28;19920;-75
2023/05/29 03:38:52;;;;;;;;;;;11.20;61.80;;;;;;5089120;28;19922;-75
2023/05/29 03:41:17;;;;;;;;;;;11.20;61.90;;;;;;5088276;28;19958;-75
2023/05/29 03:43:43;;;;;;;;;;;11.20;62.20;;;;;;5088333;28;20375;-74
2023/05/29 03:46:09;;;;;;;;;;;11.20;62.00;;;;;;5088380;28;19978;-75
2023/05/29 03:48:34;;;;;;;;;;;11.20;62.00;;;;;;5087048;28;19999;-75
2023/05/29 03:51:00;;;;;;;;;;;11.20;62.00;;;;;;5088278;28;20249;-75
2023/05/29 03:53:25;;;;;;;;;;;11.20;62.00;;;;;;5088177;28;19988;-75
2023/05/29 03:55:51;;;;;;;;;;;11.20;62.00;;;;;;5088073;28;19923;-75
2023/05/29 03:58:16;;;;;;;;;;;11.20;62.00;;;;;;5087913;28;19914;-75
2023/05/29 04:00:42;;;;;;;;;;;11.20;62.00;;;;;;5087881;28;20379;-75
2023/05/29 04:03:08;;;;;;;;;;;11.20;62.00;;;;;;5087796;28;19975;-75
2023/05/29 04:05:33;;;;;;;;;;;11.20;62.00;;;;;;5088160;28;19908;-75
2023/05/29 04:07:59;;;;;;;;;;;11.30;62.10;;;;;;5087983;28;19933;-75
2023/05/29 04:10:24;;;;;;;;;;;11.30;61.90;;;;;;5088453;28;19912;-75
2023/05/29 04:12:51;;;;;;;;;;;11.30;61.90;;;;;;5087842;28;19916;-74
2023/05/29 04:15:16;;;;;;;;;;;11.30;61.90;;;;;;5087956;28;19915;-75
2023/05/29 04:17:42;;;;;;;;;;;11.30;61.90;;;;;;5088087;28;19912;-75
2023/05/29 04:20:08;;;;;;;;;;;11.30;62.00;;;;;;5087927;28;19997;-75
2023/05/29 04:22:36;;;;;;;;;;;11.30;62.00;;;;;;5087769;28;19954;-75
2023/05/29 04:25:05;;;;;;;;;;;11.30;62.00;;;;;;5086514;28;19912;-75
2023/05/29 04:27:37;;;;;;;;;;;11.30;62.00;;;;;;5087926;28;20277;-75
2023/05/29 04:30:06;;;;;;;;;;;11.30;62.00;;;;;;5088048;28;19916;-75
2023/05/29 04:32:32;;;;;;;;;;;11.30;62.00;;;;;;5087829;28;20374;-74
2023/05/29 04:35:02;;;;;;;;;;;11.30;62.00;;;;;;5087903;28;19912;-75
2023/05/29 04:37:29;;;;;;;;;;;11.30;62.00;;;;;;5087783;28;20281;-75
2023/05/29 04:39:56;;;;;;;;;;;11.40;62.00;;;;;;5087755;28;20349;-75
2023/05/29 04:42:22;;;;;;;;;;;11.40;62.00;;;;;;5087620;28;19916;-75
2023/05/29 04:44:49;;;;;;;;;;;11.40;62.00;;;;;;5087838;28;20292;-75
2023/05/29 04:47:15;;;;;;;;;;;11.50;62.20;;;;;;5087679;28;19913;-75
2023/05/29 04:49:41;;;;;;;;;;;11.60;62.10;;;;;;5087606;28;20007;-75
2023/05/29 04:52:07;;;;;;;;;;;11.60;62.00;;;;;;5087687;28;20339;-75
2023/05/29 04:54:35;;;;;;;;;;;11.70;62.00;;;;;;5087497;28;19920;-75
2023/05/29 04:57:00;;;;;;;;;;;11.70;61.90;;;;;;5087560;28;19921;-75
2023/05/29 04:59:26;;;;;;;;;;;11.70;62.00;;;;;;5087417;28;19912;-75
2023/05/29 05:01:51;;;;;;;;;;;11.70;62.00;;;;;;5087417;28;19924;-74
2023/05/29 05:04:17;;;;;;;;;;;11.70;62.10;;;;;;5086180;28;19966;-75
2023/05/29 05:06:43;;;;;;;;;;;11.70;62.10;;;;;;5087721;28;20313;-76
2023/05/29 05:09:09;;;;;;;;;;;11.70;62.20;;;;;;5087595;28;20448;-75
2023/05/29 05:11:35;;;;;;;;;;;11.80;62.10;;;;;;5087489;28;19948;-74
2023/05/29 05:14:01;;;;;;;;;;;11.90;62.00;;;;;;5087372;28;19948;-74
2023/05/29 05:16:26;;;;;;;;;;;12.00;62.10;;;;;;5086145;28;19913;-75
2023/05/29 05:18:52;;;;;;;;;;;12.10;62.00;;;;;;5087264;28;19912;-75
2023/05/29 05:21:17;;;;;;;;;;;12.20;62.00;;;;;;5087268;28;19993;-75
2023/05/29 05:23:43;;;;;;;;;;;12.30;62.00;;;;;;5087241;28;19916;-75
2023/05/29 05:26:08;;;;;;;;;;;12.30;62.00;;;;;;5087237;28;19908;-74
2023/05/29 05:28:35;;;;;;;;;;;12.30;62.00;;;;;;5090356;28;19919;-75
2023/05/29 05:31:01;;;;;;;;;;;12.40;62.00;;;;;;5089550;28;20007;-74
2023/05/29 05:33:27;;;;;;;;;;;12.50;62.00;;;;;;5090638;28;19908;-75
2023/05/29 05:35:53;;;;;;;;;;;12.50;62.00;;;;;;5090910;28;19912;-75
2023/05/29 05:38:18;;;;;;;;;;;12.70;62.10;;;;;;5090834;28;19964;-75
2023/05/29 05:40:44;;;;;;;;;;;12.80;62.00;;;;;;5090766;28;20010;-75
2023/05/29 05:43:10;;;;;;;;;;;12.90;62.10;;;;;;5090533;28;19977;-75
2023/05/29 05:45:37;;;;;;;;;;;13.00;62.20;;;;;;5090807;28;19923;-74
2023/05/29 05:48:03;;;;;;;;;;;13.20;62.20;;;;;;5089609;28;20011;-74
2023/05/29 05:50:29;;;;;;;;;;;13.40;62.10;;;;;;5090919;28;19919;-74
2023/05/29 05:52:55;;;;;;;;;;;13.60;62.20;;;;;;5090374;28;20280;-74
2023/05/29 05:55:20;;;;;;;;;;;13.90;62.30;;;;;;5089047;28;19922;-74
2023/05/29 05:57:46;;;;;;;;;;;14.20;62.20;;;;;;5090351;28;20023;-74
2023/05/29 06:00:12;;;;;;;;;;;14.50;62.10;;;;;;5090148;28;19942;-74
2023/05/29 06:02:38;;;;;;;;;;;14.70;62.00;;;;;;5089767;28;20598;-74
2023/05/29 06:05:04;;;;;;;;;;;14.90;62.00;;;;;;5090151;28;20364;-75
2023/05/29 06:07:30;;;;;;;;;;;15.10;62.10;;;;;;5090059;28;19919;-74
2023/05/29 06:09:55;;;;;;;;;;;15.30;62.10;;;;;;5089967;28;19961;-75
2023/05/29 06:12:21;;;;;;;;;;;15.50;62.00;;;;;;5090028;28;19912;-74
2023/05/29 06:14:46;;;;;;;;;;;15.50;61.90;;;;;;5089866;28;19912;-74
2023/05/29 06:17:12;;;;;;;;;;;15.60;62.20;;;;;;5088604;28;19916;-74
2023/05/29 06:19:38;;;;;;;;;;;15.90;62.10;;;;;;5088616;28;20443;-74
2023/05/29 06:22:04;;;;;;;;;;;16.00;62.00;;;;;;5089880;28;20015;-75
2023/05/29 06:24:30;;;;;;;;;;;16.20;62.00;;;;;;5089775;28;19927;-75
2023/05/29 06:26:55;;;;;;;;;;;16.40;62.00;;;;;;5089704;28;19920;-74
2023/05/29 06:29:21;;;;;;;;;;;16.50;61.80;;;;;;5089630;28;19913;-75
2023/05/29 06:31:46;;;;;;;;;;;16.60;61.90;;;;;;5088251;28;19944;-75
2023/05/29 06:34:12;;;;;;;;;;;16.50;62.00;;;;;;5089386;28;20346;-74
2023/05/29 06:36:38;;;;;;;;;;;16.90;62.40;;;;;;5089349;28;20007;-75
2023/05/29 06:39:04;;;;;;;;;;;17.60;62.30;;;;;;5088866;28;19920;-75
2023/05/29 06:41:30;;;;;;;;;;;18.40;62.00;;;;;;5087990;28;19976;-75
2023/05/29 06:43:55;;;;;;;;;;;19.40;61.50;;;;;;5089477;28;19916;-75
2023/05/29 06:46:21;;;;;;;;;;;20.40;60.60;;;;;;5088072;28;19912;-75
2023/05/29 06:48:46;;;;;;;;;;;21.30;60.20;;;;;;5089619;28;19916;-75
2023/05/29 06:51:12;;;;;;;;;;;22.10;59.90;;;;;;5089054;28;20307;-75
2023/05/29 06:53:38;;;;;;;;;;;22.70;59.70;;;;;;5088879;28;19912;-75
2023/05/29 06:56:05;;;;;;;;;;;23.10;59.40;;;;;;5088977;28;20331;-75
2023/05/29 06:58:30;;;;;;;;;;;23.30;59.60;;;;;;5088886;28;19912;-75
2023/05/29 07:00:56;;;;;;;;;;;23.90;59.90;;;;;;5088351;28;19912;-75
2023/05/29 07:03:22;;;;;;;;;;;24.50;59.70;;;;;;5088447;28;20015;-75
2023/05/29 07:05:47;;;;;;;;;;;24.90;59.20;;;;;;5088607;28;20361;-75
2023/05/29 07:08:13;;;;;;;;;;;25.10;59.10;;;;;;5088590;28;20308;-70
2023/05/29 07:10:38;;;;;;;;;;;25.30;59.20;;;;;;5088476;28;19908;-70
2023/05/29 07:13:06;;;;;;;;;;;25.70;59.40;;;;;;5088731;28;20049;-70
2023/05/29 07:15:31;;;;;;;;;;;26.30;59.30;;;;;;5089057;28;19919;-70
2023/05/29 07:17:57;;;;;;;;;;;26.40;59.20;;;;;;5088975;28;19912;-69
2023/05/29 07:20:23;;;;;;;;;;;26.50;59.90;;;;;;5088633;28;20002;-70
2023/05/29 07:22:48;;;;;;;;;;;26.80;60.10;;;;;;5088515;28;19920;-70
2023/05/29 07:25:14;;;;;;;;;;;27.10;60.40;;;;;;5088426;28;19912;-70
2023/05/29 07:27:40;;;;;;;;;;;27.50;60.70;;;;;;5088519;28;19930;-70
2023/05/29 07:30:06;;;;;;;;;;;28.00;60.60;;;;;;5088444;28;19989;-70
2023/05/29 07:32:32;;;;;;;;;;;28.20;60.00;;;;;;5088208;28;19958;-70
2023/05/29 07:34:57;;;;;;;;;;;27.90;60.20;;;;;;5088199;28;19939;-70
2023/05/29 07:37:23;;;;;;;;;;;27.90;60.90;;;;;;5088220;28;19913;-70
2023/05/29 07:39:48;;;;;;;;;;;28.10;61.20;;;;;;5088006;28;19916;-70
2023/05/29 07:42:14;;;;;;;;;;;28.30;61.50;;;;;;5088203;28;20362;-70
2023/05/29 07:44:42;;;;;;;;;;;28.80;61.30;;;;;;5087504;28;19916;-69
2023/05/29 07:47:11;;;;;;;;;;;29.00;61.30;;;;;;5087604;28;19951;-69
2023/05/29 07:49:36;;;;;;;;;;;29.20;61.40;;;;;;5086489;28;20283;-69
2023/05/29 07:52:03;;;;;;;;;;;29.10;61.40;;;;;;5087501;28;19908;-69
2023/05/29 07:54:28;;;;;;;;;;;29.00;61.60;;;;;;5087236;28;20265;-69
2023/05/29 07:56:54;;;;;;;;;;;28.70;61.50;;;;;;5087372;28;20051;-69
2023/05/29 07:59:21;;;;;;;;;;;28.40;61.60;;;;;;5087308;28;20000;-69
2023/05/29 08:01:47;;;;;;;;;;;28.10;62.50;;;;;;5087118;28;19968;-69
2023/05/29 08:04:12;;;;;;;;;;;28.30;62.60;;;;;;5087031;28;20052;-69
2023/05/29 08:06:42;;;;;;;;;;;28.20;62.70;;;;;;5087209;28;20532;-69
2023/05/29 08:09:07;;;;;;;;;;;28.30;63.00;;;;;;5087392;28;20408;-69
2023/05/29 08:11:33;;;;;;;;;;;28.50;63.00;;;;;;5087447;28;20028;-69
2023/05/29 08:13:59;;;;;;;;;;;28.90;63.20;;;;;;5087413;28;19926;-69
2023/05/29 08:16:27;;;;;;;;;;;29.30;63.00;;;;;;5087689;28;19919;-70
2023/05/29 08:18:52;;;;;;;;;;;29.30;63.00;;;;;;5088256;28;19931;-69
2023/05/29 08:21:18;;;;;;;;;;;29.40;63.00;;;;;;5087303;28;19912;-69
2023/05/29 08:23:43;;;;;;;;;;;29.20;62.90;;;;;;5085840;28;19955;-69
2023/05/29 08:26:09;;;;;;;;;;;28.90;63.50;;;;;;5085825;28;19939;-69
2023/05/29 08:28:35;;;;;;;;;;;28.80;63.50;;;;;;5087197;28;19915;-69
2023/05/29 08:31:00;;;;;;;;;;;28.80;63.80;;;;;;5087059;28;20437;-69
2023/05/29 08:33:26;;;;;;;;;;;29.00;64.20;;;;;;5085301;28;19908;-69
2023/05/29 08:35:52;;;;;;;;;;;29.20;64.30;;;;;;5088171;28;19916;-71
2023/05/29 08:38:17;;;;;;;;;;;29.60;64.10;;;;;;5088412;28;20376;-70
2023/05/29 08:40:43;;;;;;;;;;;29.50;63.70;;;;;;5087871;28;20062;-69
2023/05/29 08:43:16;;;;;;;;;;;29.10;63.60;;;;;;5087758;28;19922;-72
2023/05/29 08:45:45;;;;;;;;;;;28.90;63.80;;;;;;5087974;28;20372;-73
2023/05/29 08:48:11;;;;;;;;;;;29.30;64.30;;;;;;5087673;28;19996;-72
2023/05/29 08:50:42;;;;;;;;;;;29.80;64.30;;;;;;5087907;28;20003;-72
2023/05/29 08:53:09;;;;;;;;;;;30.20;64.00;;;;;;5087617;28;19978;-71
2023/05/29 08:55:35;;;;;;;;;;;30.40;64.20;;;;;;5087714;28;19947;-71
2023/05/29 08:58:01;;;;;;;;;;;30.50;63.70;;;;;;5087830;28;20356;-71
2023/05/29 09:00:29;;;;;;;;;;;30.50;63.80;;;;;;5087499;28;19912;-71
2023/05/29 09:02:55;;;;;;;;;;;30.40;63.80;;;;;;5090336;28;19998;-70
2023/05/29 09:05:21;;;;;;;;;;;30.30;64.00;;;;;;5090809;28;19912;-71
2023/05/29 09:07:49;;;;;;;;;;;30.60;64.70;;;;;;5089182;28;19935;-71
2023/05/29 09:10:15;;;;;;;;;;;31.20;64.50;;;;;;5091359;28;20272;-71
2023/05/29 09:12:41;;;;;;;;;;;31.40;64.00;;;;;;5090792;28;19912;-71
2023/05/29 09:15:27;;;;;;;;;;;31.20;64.00;;;;;;5089310;28;19908;-71
2023/05/29 09:17:53;;;;;;;;;;;30.80;64.00;;;;;;5088203;28;20402;-71
2023/05/29 09:20:22;;;;;;;;;;;30.30;64.60;;;;;;5087273;28;20401;-71
2023/05/29 09:22:54;;;;;;;;;;;30.10;65.00;;;;;;5085754;28;20383;-71
2023/05/29 09:25:22;;;;;;;;;;;30.00;65.40;;;;;;5090032;28;20442;-71
2023/05/29 09:27:50;;;;;;;;;;;30.00;65.40;;;;;;5090896;28;19908;-71
2023/05/29 09:30:36;;;;;;;;;;;29.80;65.70;;;;;;5091271;28;20506;-71
2023/05/29 09:33:03;;;;;;;;;;;29.80;65.70;;;;;;5101917;28;19919;-71
2023/05/29 09:35:47;;;;;;;;;;;29.90;65.90;;;;;;5102550;28;19912;-71
2023/05/29 09:38:15;;;;;;;;;;;30.00;65.00;;;;;;5107241;28;19912;-71
2023/05/29 09:40:41;;;;;;;;;;;30.00;65.10;;;;;;5111181;28;19911;-71
2023/05/29 09:43:10;;;;;;;;;;;30.20;65.00;;;;;;5109792;28;20305;-71
2023/05/29 09:45:37;;;;;;;;;;;30.40;65.10;;;;;;5111169;28;19915;-71
2023/05/29 09:48:02;;;;;;;;;;;30.60;64.70;;;;;;5111182;28;19907;-71
2023/05/29 09:50:28;;;;;;;;;;;30.70;64.70;;;;;;5111050;28;19964;-71
2023/05/29 09:52:57;;;;;;;;;;;30.60;64.90;;;;;;5111225;28;20387;-71
2023/05/29 09:55:26;;;;;;;;;;;30.70;65.40;;;;;;5110835;28;19908;-71
2023/05/29 09:57:53;;;;;;;;;;;30.60;64.70;;;;;;5109318;28;19908;-71
2023/05/29 10:00:19;;;;;;;;;;;30.30;65.30;;;;;;5110596;28;19926;-71
2023/05/29 10:02:45;;;;;;;;;;;30.30;65.10;;;;;;5094274;28;19973;-71
2023/05/29 10:05:15;;;;;;;;;;;30.20;64.80;;;;;;5091201;28;19908;-71
2023/05/29 10:07:43;;;;;;;;;;;29.90;65.20;;;;;;5090735;28;20383;-72
2023/05/29 10:10:11;;;;;;;;;;;29.70;65.30;;;;;;5090683;28;20291;-71
2023/05/29 10:12:38;;;;;;;;;;;29.90;65.60;;;;;;5090035;28;19913;-73
2023/05/29 10:15:06;;;;;;;;;;;30.30;65.80;;;;;;5090752;28;20003;-74
2023/05/29 10:17:36;;;;;;;;;;;30.70;65.20;;;;;;5090666;28;20372;-74
2023/05/29 10:20:06;;;;;;;;;;;31.00;65.10;;;;;;5090595;28;19908;-72
2023/05/29 10:22:31;;;;;;;;;;;31.20;64.90;;;;;;5090898;28;19912;-72
2023/05/29 10:24:57;;;;;;;;;;;31.10;64.70;;;;;;5088900;28;20019;-72
2023/05/29 10:27:23;;;;;;;;;;;31.10;64.80;;;;;;5089348;28;19912;-72
2023/05/29 10:29:58;;;;;;;;;;;30.90;65.20;;;;;;5090098;28;19965;-72
2023/05/29 10:32:29;;;;;;;;;;;31.20;65.20;;;;;;5090190;28;19912;-72
2023/05/29 10:35:11;;;;;;;;;;;31.10;65.10;;;;;;5089909;28;19939;-73
2023/05/29 10:37:37;;;;;;;;;;;30.80;65.40;;;;;;5089958;28;19915;-72
2023/05/29 10:40:16;;;;;;;;;;;30.40;65.40;;;;;;5090262;28;19909;-72
2023/05/29 10:42:44;;;;;;;;;;;30.10;65.40;;;;;;5090137;28;19915;-71
2023/05/29 10:45:11;;;;;;;;;;;29.30;65.70;;;;;;5089044;28;19912;-70
2023/05/29 10:47:37;;;;;;;;;;;28.90;66.30;;;;;;5089996;28;19908;-74
2023/05/29 10:50:03;;;;;;;;;;;29.10;66.80;;;;;;5089765;28;19918;-71
2023/05/29 10:52:33;;;;;;;;;;;29.50;66.70;;;;;;5088520;28;19919;-72
2023/05/29 10:54:58;;;;;;;;;;;29.80;66.40;;;;;;5089621;28;20519;-73
2023/05/29 10:57:26;;;;;;;;;;;30.10;66.00;;;;;;5089094;28;19912;-72
2023/05/29 10:59:59;;;;;;;;;;;30.40;65.80;;;;;;5089171;28;19995;-72
2023/05/29 11:02:25;;;;;;;;;;;30.60;65.20;;;;;;5088991;28;19973;-72
2023/05/29 11:05:17;;;;;;;;;;;30.60;64.90;;;;;;5088895;28;20344;-72
2023/05/29 11:07:53;;;;;;;;;;;30.30;65.10;;;;;;5088467;28;19916;-68
2023/05/29 11:10:39;;;;;;;;;;;30.30;65.60;;;;;;5087381;28;19909;-72
2023/05/29 11:13:07;;;;;;;;;;;30.30;65.00;;;;;;5068823;28;19916;-72
2023/05/29 11:15:32;;;;;;;;;;;30.10;65.60;;;;;;5088423;28;20384;-71
2023/05/29 11:18:05;;;;;;;;;;;30.30;66.10;;;;;;5088987;28;19916;-72
2023/05/29 11:20:42;;;;;;;;;;;30.90;66.10;;;;;;5089304;28;19908;-72
2023/05/29 11:23:08;;;;;;;;;;;31.20;65.50;;;;;;5089073;28;19969;-72
2023/05/29 11:25:34;;;;;;;;;;;31.30;65.00;;;;;;5089211;28;19912;-73
2023/05/29 11:28:00;;;;;;;;;;;31.30;65.00;;;;;;5089494;28;19912;-73
2023/05/29 11:30:26;;;;;;;;;;;31.30;64.90;;;;;;5089532;28;19944;-73
2023/05/29 11:32:52;;;;;;;;;;;31.20;64.80;;;;;;5089177;28;19919;-71
2023/05/29 11:35:19;;;;;;;;;;;31.00;65.20;;;;;;5088668;28;19912;-70
2023/05/29 11:37:47;;;;;;;;;;;31.10;65.10;;;;;;5089201;28;19915;-70
2023/05/29 11:40:13;;;;;;;;;;;30.80;65.00;;;;;;5089230;28;20003;-71
2023/05/29 11:42:45;;;;;;;;;;;30.70;65.20;;;;;;5088959;28;20268;-71
2023/05/29 11:45:11;;;;;;;;;;;30.90;65.30;;;;;;5089054;28;19912;-71
2023/05/29 11:47:55;;;;;;;;;;;31.10;65.30;;;;;;5089042;28;20380;-71
2023/05/29 11:50:22;;;;;;;;;;;31.10;65.20;;;;;;5087897;28;19916;-70
2023/05/29 11:52:47;;;;;;;;;;;30.90;64.70;;;;;;5070494;28;20258;-72
2023/05/29 11:55:13;;;;;;;;;;;30.60;64.80;;;;;;5087461;28;19912;-72
2023/05/29 11:57:38;;;;;;;;;;;30.60;64.80;;;;;;5088881;28;19970;-71
2023/05/29 12:00:05;;;;;;;;;;;30.40;65.50;;;;;;5088850;28;20543;-71
2023/05/29 12:02:31;;;;;;;;;;;30.30;65.20;;;;;;5087507;28;20310;-71
2023/05/29 12:05:00;;;;;;;;;;;30.00;65.60;;;;;;5088701;28;19920;-71
2023/05/29 12:07:28;;;;;;;;;;;29.60;65.50;;;;;;5088003;28;20255;-71
2023/05/29 12:09:57;;;;;;;;;;;29.50;65.30;;;;;;5088723;28;20352;-71
2023/05/29 12:12:27;;;;;;;;;;;29.10;65.00;;;;;;5088676;28;19934;-72
2023/05/29 12:14:53;;;;;;;;;;;28.80;65.70;;;;;;5088494;28;19948;-72
2023/05/29 12:17:19;;;;;;;;;;;28.90;65.60;;;;;;5088501;28;20350;-72
2023/05/29 12:19:45;;;;;;;;;;;28.90;65.30;;;;;;5088461;28;19912;-71
2023/05/29 12:22:11;;;;;;;;;;;28.90;65.50;;;;;;5088423;28;19912;-72
2023/05/29 12:24:36;;;;;;;;;;;29.00;65.60;;;;;;5086401;28;20287;-71
2023/05/29 12:27:07;;;;;;;;;;;29.20;65.00;;;;;;5090363;28;19916;-70
2023/05/29 12:29:33;;;;;;;;;;;28.80;64.80;;;;;;5092461;28;19912;-71
2023/05/29 12:31:59;;;;;;;;;;;28.60;65.10;;;;;;5091721;28;19912;-72
2023/05/29 12:34:25;;;;;;;;;;;28.50;65.40;;;;;;5087698;28;19919;-72
2023/05/29 12:36:50;;;;;;;;;;;28.50;65.20;;;;;;5089704;28;20002;-71
2023/05/29 12:39:16;;;;;;;;;;;28.30;65.20;;;;;;5092411;28;19919;-72
2023/05/29 12:41:42;;;;;;;;;;;28.30;65.50;;;;;;5092382;28;19919;-69
2023/05/29 12:44:08;;;;;;;;;;;28.40;65.50;;;;;;5092275;28;20408;-72
2023/05/29 12:46:43;;;;;;;;;;;28.70;65.40;;;;;;5092650;28;19912;-71
2023/05/29 12:49:29;;;;;;;;;;;28.80;65.10;;;;;;5091004;28;19968;-72
2023/05/29 12:51:54;;;;;;;;;;;28.70;64.90;;;;;;5089758;28;19930;-71
2023/05/29 12:54:20;;;;;;;;;;;28.50;65.20;;;;;;5090700;28;20284;-71
2023/05/29 12:56:46;;;;;;;;;;;28.50;65.40;;;;;;5091270;28;19920;-71
2023/05/29 12:59:12;;;;;;;;;;;28.40;65.50;;;;;;5091074;28;19913;-71
2023/05/29 13:01:38;;;;;;;;;;;28.30;65.00;;;;;;5091019;28;19956;-71
2023/05/29 13:04:06;;;;;;;;;;;28.20;64.90;;;;;;5090877;28;19923;-72
2023/05/29 13:06:32;;;;;;;;;;;28.10;65.10;;;;;;5091626;28;19914;-72
2023/05/29 13:08:58;;;;;;;;;;;28.00;65.10;;;;;;5091605;28;19912;-73
2023/05/29 13:11:23;;;;;;;;;;;27.80;64.70;;;;;;5092150;28;19973;-72
2023/05/29 13:13:49;;;;;;;;;;;27.40;65.00;;;;;;5091632;28;19939;-72
2023/05/29 13:16:17;;;;;;;;;;;27.20;64.70;;;;;;5091970;28;20003;-72
2023/05/29 13:18:43;;;;;;;;;;;26.70;64.70;;;;;;5091914;28;19963;-72
2023/05/29 13:21:08;;;;;;;;;;;26.40;64.50;;;;;;5091376;28;19920;-72
2023/05/29 13:23:34;;;;;;;;;;;26.10;64.00;;;;;;5091635;28;20275;-72
2023/05/29 13:26:00;;;;;;;;;;;25.60;63.70;;;;;;5091632;28;19934;-72
2023/05/29 13:28:27;;;;;;;;;;;25.10;63.50;;;;;;5092307;28;20010;-72
2023/05/29 13:30:53;;;;;;;;;;;24.60;63.70;;;;;;5091470;28;19908;-72
2023/05/29 13:33:18;;;;;;;;;;;24.40;64.00;;;;;;5091031;28;19912;-71
2023/05/29 13:35:44;;;;;;;;;;;24.10;63.90;;;;;;5090868;28;20348;-71
2023/05/29 13:38:09;;;;;;;;;;;24.00;63.80;;;;;;5091182;28;20008;-71
2023/05/29 13:40:35;;;;;;;;;;;23.80;63.70;;;;;;5091346;28;19946;-72
2023/05/29 13:43:01;;;;;;;;;;;23.60;63.70;;;;;;5090916;28;20018;-71
2023/05/29 13:45:27;;;;;;;;;;;23.40;63.50;;;;;;5090966;28;20403;-72
2023/05/29 13:47:53;;;;;;;;;;;23.20;63.40;;;;;;5089823;28;19957;-71
2023/05/29 13:50:19;;;;;;;;;;;23.10;63.30;;;;;;5091172;28;19994;-71
2023/05/29 13:52:45;;;;;;;;;;;23.00;63.30;;;;;;5090229;28;19916;-72
2023/05/29 13:55:10;;;;;;;;;;;23.00;63.10;;;;;;5091604;28;20374;-74
2023/05/29 13:57:36;;;;;;;;;;;23.00;62.90;;;;;;5091459;28;19912;-72
2023/05/29 14:00:03;;;;;;;;;;;22.90;62.70;;;;;;5089523;28;19951;-73
2023/05/29 14:02:29;;;;;;;;;;;22.80;62.70;;;;;;5090550;28;19928;-73
2023/05/29 14:04:54;;;;;;;;;;;22.70;62.50;;;;;;5090174;28;19938;-71
2023/05/29 14:07:20;;;;;;;;;;;22.50;62.40;;;;;;5090172;28;20006;-71
2023/05/29 14:09:45;;;;;;;;;;;22.30;62.50;;;;;;5090396;28;19920;-71
2023/05/29 14:12:11;;;;;;;;;;;22.10;62.50;;;;;;5090761;28;19912;-71
2023/05/29 14:14:37;;;;;;;;;;;21.90;62.70;;;;;;5090520;28;20334;-71